createdAt,value
2022-12-25T06:19:21.437Z,0.373
2022-12-25T06:25:06.472Z,0.747
2022-12-25T06:29:36.927Z,2.241
2022-12-25T06:34:42.894Z,4.855
2022-12-25T06:37:21.099Z,7.843
2022-12-25T06:42:20.318Z,16.807
2022-12-25T06:45:49.594Z,28.012
2022-12-25T06:50:58.870Z,53.41
2022-12-25T06:55:59.015Z,94.869
2022-12-25T07:00:59.261Z,165.834
2022-12-25T07:05:59.207Z,265.932
2022-12-25T07:08:37.437Z,319.716
2022-12-25T07:11:10.626Z,373.5
2022-12-25T07:13:43.597Z,442.224
2022-12-25T07:18:03.725Z,612.54
2022-12-25T07:21:07.487Z,761.94
2022-12-25T07:23:50.669Z,830.664
2022-12-25T07:26:49.224Z,848.592
2022-12-25T07:30:03.153Z,968.112
2022-12-25T07:32:44.315Z,1057.752
2022-12-25T07:35:19.597Z,1183.248
2022-12-25T07:37:52.604Z,1344.6
2022-12-25T07:40:35.990Z,1470.096
2022-12-25T07:43:14.116Z,1344.6
2022-12-25T07:45:47.241Z,1362.528
2022-12-25T07:48:30.386Z,1314.72
2022-12-25T07:51:49.385Z,1243.008
2022-12-25T07:54:37.778Z,1135.44
2022-12-25T07:57:15.955Z,1129.464
2022-12-25T08:00:04.351Z,1272.888
2022-12-25T08:02:42.660Z,1541.808
2022-12-25T08:05:15.660Z,1995.984
2022-12-25T08:08:04.114Z,2354.544
2022-12-25T08:10:57.557Z,2964.096
2022-12-25T08:14:01.257Z,3298.752
2022-12-25T08:16:44.748Z,3227.04
2022-12-25T08:19:43.261Z,3346.56
2022-12-25T08:22:41.913Z,3023.856
2022-12-25T08:26:06.058Z,2928.24
2022-12-25T08:29:04.678Z,2832.624
2022-12-25T08:31:48.087Z,3203.136
2022-12-25T08:34:36.498Z,3752.928
2022-12-25T08:37:14.712Z,4446.144
2022-12-25T08:39:52.937Z,5426.208
2022-12-25T08:42:30.558Z,6358.464
2022-12-25T08:45:18.924Z,7697.088
2022-12-25T08:48:22.616Z,10135.296
2022-12-25T08:50:55.711Z,10613.376
2022-12-25T08:53:28.857Z,10374.336
2022-12-25T08:56:01.969Z,10039.68
2022-12-25T08:59:12.500Z,9848.448
2022-12-25T09:02:16.352Z,9991.872
2022-12-25T09:05:14.786Z,10230.912
2022-12-25T09:07:58.097Z,10517.76
2022-12-25T09:10:36.269Z,10804.608
2022-12-25T09:13:09.465Z,11091.456
2022-12-25T09:15:47.674Z,11378.304
2022-12-25T09:18:25.899Z,11521.728
2022-12-25T09:20:59.052Z,11808.576
2022-12-25T09:23:37.311Z,12143.232
2022-12-25T09:26:20.629Z,12525.696
2022-12-25T09:29:09.083Z,12908.16
2022-12-25T09:31:42.321Z,13290.624
2022-12-25T09:34:20.597Z,13673.088
2022-12-25T09:36:59.853Z,13959.936
2022-12-25T09:39:42.263Z,13864.32
2022-12-25T09:42:16.319Z,14438.016
2022-12-25T09:45:04.904Z,14438.016
2022-12-25T09:47:48.244Z,14724.864
2022-12-25T09:50:21.372Z,14916.096
2022-12-25T09:52:59.627Z,15202.944
2022-12-25T09:55:58.282Z,15585.408
2022-12-25T09:58:57.012Z,15872.256
2022-12-25T10:01:30.289Z,16063.488
2022-12-25T10:04:08.399Z,16350.336
2022-12-25T10:06:46.701Z,16063.488
2022-12-25T10:09:19.915Z,16732.8
2022-12-25T10:11:53.053Z,15776.64
2022-12-25T10:14:36.459Z,17115.264
2022-12-25T10:17:09.569Z,17210.88
2022-12-25T10:20:08.275Z,17497.728
2022-12-25T10:22:46.522Z,18071.424
2022-12-25T10:25:19.731Z,18740.736
2022-12-25T10:28:03.017Z,19983.744
2022-12-25T10:31:06.822Z,22756.608
2022-12-25T10:33:39.800Z,22660.992
2022-12-25T10:37:19.319Z,22852.224
2022-12-25T10:39:53.783Z,8318.592
2022-12-25T10:42:26.946Z,8127.36
2022-12-25T10:45:30.610Z,7649.28
2022-12-25T10:48:08.867Z,9800.64
2022-12-25T10:50:47.069Z,10135.296
2022-12-25T10:53:25.360Z,7314.624
2022-12-25T10:56:23.892Z,6167.232
2022-12-25T10:59:10.999Z,10087.488
2022-12-25T11:01:44.609Z,14342.4
2022-12-25T11:04:17.613Z,15394.176
2022-12-25T11:06:49.387Z,27919.872
2022-12-25T11:09:24.022Z,12143.232
2022-12-25T11:12:07.377Z,11665.152
2022-12-25T11:14:51.266Z,13768.704
2022-12-25T11:17:24.363Z,18549.504
2022-12-25T11:19:58.041Z,14151.168
2022-12-25T11:22:41.339Z,13290.624
2022-12-25T11:25:29.847Z,12047.616
2022-12-25T11:28:08.068Z,13195.008
2022-12-25T11:30:42.501Z,8127.36
2022-12-25T11:33:15.599Z,6549.696
2022-12-25T11:36:19.397Z,6310.656
2022-12-25T11:39:02.706Z,6884.352
2022-12-25T11:41:51.132Z,7936.128
2022-12-25T11:44:24.793Z,9896.256
2022-12-25T11:46:57.983Z,10804.608
2022-12-25T11:49:43.559Z,10469.952
2022-12-25T11:52:24.484Z,11187.072
2022-12-25T11:54:57.527Z,12621.312
2022-12-25T11:57:28.629Z,16445.952
2022-12-25T12:00:01.187Z,17593.344
2022-12-25T12:03:09.846Z,25625.088
2022-12-25T12:05:48.016Z,25051.392
2022-12-25T12:08:41.798Z,17306.496
2022-12-25T12:11:29.200Z,23234.688
2022-12-25T12:14:02.349Z,22469.76
2022-12-25T12:16:55.912Z,21609.216
2022-12-25T12:19:33.856Z,23139.072
2022-12-25T12:22:12.096Z,19410.048
2022-12-25T12:24:47.710Z,13290.624
2022-12-25T12:27:23.216Z,13959.936
2022-12-25T12:29:56.218Z,5569.632
2022-12-25T12:32:39.579Z,8366.4
2022-12-25T12:35:11.726Z,12143.232
2022-12-25T12:37:55.182Z,9370.368
2022-12-25T12:40:43.616Z,8462.016
2022-12-25T12:43:16.749Z,10517.76
2022-12-25T12:46:06.837Z,9944.064
2022-12-25T12:48:45.076Z,9322.56
2022-12-25T12:51:18.172Z,11473.92
2022-12-25T12:53:56.377Z,11665.152
2022-12-25T12:56:29.498Z,10948.032
2022-12-25T12:59:12.861Z,7649.28
2022-12-25T13:01:56.396Z,4517.856
2022-12-25T13:04:29.328Z,3633.408
2022-12-25T13:07:33.169Z,3513.888
2022-12-25T13:11:22.877Z,3633.408
2022-12-25T13:14:01.124Z,3561.696
2022-12-25T13:16:44.485Z,3800.736
2022-12-25T13:19:17.529Z,3872.448
2022-12-25T13:21:55.802Z,3920.256
2022-12-25T13:24:54.434Z,4015.872
2022-12-25T13:28:03.267Z,3824.64
2022-12-25T13:30:36.462Z,3370.464
2022-12-25T13:33:09.577Z,2713.104
2022-12-25T13:35:42.693Z,2127.456
2022-12-25T13:38:15.935Z,1589.616
2022-12-25T13:40:59.373Z,1290.816
2022-12-25T13:43:52.911Z,1117.512
2022-12-25T13:46:31.257Z,1344.6
2022-12-25T13:49:29.768Z,1733.04
2022-12-25T13:52:02.917Z,1864.512
2022-12-25T13:55:37.321Z,1984.032
2022-12-25T13:58:20.583Z,2031.84
2022-12-25T14:00:53.777Z,2306.736
2022-12-25T14:03:27.024Z,2294.784
2022-12-25T14:06:15.536Z,2103.552
2022-12-25T14:08:53.868Z,2258.928
2022-12-25T14:12:33.454Z,2414.304
2022-12-25T14:15:16.770Z,2270.88
2022-12-25T14:18:05.300Z,1828.656
2022-12-25T14:20:38.416Z,1637.424
2022-12-25T14:23:16.676Z,1511.928
2022-12-25T14:26:00.162Z,1260.936
2022-12-25T14:28:33.280Z,1057.752
2022-12-25T14:31:06.493Z,812.736
2022-12-25T14:33:54.916Z,594.612
2022-12-25T14:36:27.988Z,546.804
2022-12-25T14:39:06.257Z,600.588
2022-12-25T14:41:39.376Z,564.732
2022-12-25T14:44:58.424Z,481.068
2022-12-25T14:47:57.115Z,412.344
2022-12-25T14:50:40.291Z,253.98
2022-12-25T14:53:28.792Z,207.666
2022-12-25T14:56:01.914Z,203.184
2022-12-25T14:58:55.530Z,158.364
2022-12-25T15:01:44.016Z,128.484
2022-12-25T15:04:32.388Z,112.797
2022-12-25T15:07:05.478Z,98.604
2022-12-25T15:09:38.688Z,78.808
2022-12-25T15:12:16.873Z,64.989
2022-12-25T15:14:50.051Z,47.434
2022-12-25T15:17:38.527Z,34.362
2022-12-25T15:20:11.703Z,26.518
2022-12-25T15:23:19.249Z,19.795
2022-12-25T15:25:43.544Z,16.807
2022-12-25T15:28:21.832Z,12.699
2022-12-25T15:30:55.073Z,8.59
2022-12-25T15:33:43.804Z,5.229
2022-12-25T15:36:16.812Z,2.614
2022-12-25T15:41:06.918Z,1.12
2022-12-25T15:44:41.355Z,0.373
2022-12-25T15:53:37.556Z,0
